createdAt,value
2023-04-24T00:01:21.173Z,11.41
2023-04-24T00:06:24.914Z,11.83
2023-04-24T00:11:28.716Z,11.74
2023-04-24T00:16:32.253Z,12.75
2023-04-24T00:21:36.119Z,12.84
2023-04-24T00:26:40.453Z,12.34
2023-04-24T00:31:44.059Z,12.62
2023-04-24T00:36:47.634Z,12.56
2023-04-24T00:41:52.191Z,12.39
2023-04-24T00:46:57.002Z,12.80
2023-04-24T00:52:00.757Z,12.85
2023-04-24T00:57:05.758Z,12.64
2023-04-24T01:02:12.347Z,12.91
2023-04-24T01:07:15.832Z,12.53
2023-04-24T01:12:19.797Z,12.49
2023-04-24T01:17:23.050Z,12.46
2023-04-24T01:22:26.646Z,12.98
2023-04-24T01:27:29.805Z,12.65
2023-04-24T01:32:34.428Z,12.51
2023-04-24T01:37:40.833Z,12.54
2023-04-24T01:42:44.104Z,13.15
2023-04-24T01:47:48.017Z,13.35
2023-04-24T01:52:51.620Z,12.96
2023-04-24T01:57:58.149Z,13.00
2023-04-24T02:03:03.438Z,12.54
2023-04-24T02:08:07.723Z,13.07
2023-04-24T02:13:14.129Z,13.00
2023-04-24T02:18:18.322Z,12.35
2023-04-24T02:23:21.372Z,12.48
2023-04-24T02:28:24.922Z,12.58
2023-04-24T02:33:29.043Z,12.57
2023-04-24T02:38:32.856Z,12.86
2023-04-24T02:43:36.745Z,13.02
2023-04-24T02:48:40.692Z,12.82
2023-04-24T02:53:44.437Z,13.20
2023-04-24T02:58:48.225Z,13.23
2023-04-24T03:03:51.508Z,13.24
2023-04-24T03:08:55.903Z,12.62
2023-04-24T03:13:59.869Z,13.16
2023-04-24T03:19:03.980Z,13.36
2023-04-24T03:24:10.826Z,13.39
2023-04-24T03:29:15.245Z,13.06
2023-04-24T03:34:19.378Z,13.41
2023-04-24T03:39:23.644Z,12.79
2023-04-24T03:44:31.473Z,12.82
2023-04-24T03:49:35.305Z,13.01
2023-04-24T03:54:38.877Z,12.87
2023-04-24T03:59:43.752Z,12.58
2023-04-24T04:04:53.769Z,12.62
2023-04-24T04:09:57.577Z,12.69
2023-04-24T04:15:01.786Z,12.62
2023-04-24T04:20:10.087Z,12.38
2023-04-24T04:25:15.236Z,12.54
2023-04-24T04:30:19.925Z,12.36
2023-04-24T04:35:33.804Z,11.80
2023-04-24T04:40:37.617Z,11.92
2023-04-24T04:45:44.779Z,12.02
2023-04-24T04:51:17.908Z,11.87
2023-04-24T04:56:21.118Z,12.77
2023-04-24T05:01:25.506Z,12.81
2023-04-24T05:06:28.913Z,13.21
2023-04-24T05:11:32.664Z,13.59
2023-04-24T05:16:38.855Z,13.56
2023-04-24T05:21:44.008Z,13.64
2023-04-24T05:26:48.471Z,12.99
2023-04-24T05:31:54.956Z,13.56
2023-04-24T05:37:00.377Z,13.04
2023-04-24T05:42:06.595Z,13.64
2023-04-24T05:47:10.294Z,13.66
2023-04-24T05:52:14.021Z,14.36
2023-04-24T05:57:18.871Z,14.62
2023-04-24T06:02:41.474Z,15.14
2023-04-24T06:07:49.438Z,15.01
2023-04-24T06:12:53.421Z,15.59
2023-04-24T06:17:57.570Z,15.55
2023-04-24T06:23:01.839Z,17.86
2023-04-24T06:28:05.322Z,19.01
2023-04-24T06:33:19.364Z,20.05
2023-04-24T06:38:23.976Z,19.96
2023-04-24T06:43:27.071Z,20.42
2023-04-24T06:48:30.905Z,20.52
2023-04-24T06:53:34.954Z,21.00
2023-04-24T06:58:38.127Z,20.91
2023-04-24T07:03:41.882Z,21.06
2023-04-24T07:08:45.561Z,20.73
2023-04-24T07:13:49.036Z,21.32
2023-04-24T07:18:52.725Z,21.71
2023-04-24T07:23:56.694Z,21.82
2023-04-24T07:29:01.301Z,21.84
2023-04-24T07:34:04.920Z,21.69
2023-04-24T07:39:09.504Z,21.79
2023-04-24T07:44:12.878Z,21.75
2023-04-24T07:49:19.162Z,22.39
2023-04-24T07:54:23.719Z,22.61
2023-04-24T07:59:27.588Z,22.64
2023-04-24T08:04:31.460Z,22.58
2023-04-24T08:09:35.453Z,22.75
2023-04-24T08:14:39.544Z,22.92
2023-04-24T08:19:49.600Z,22.66
2023-04-24T08:24:53.431Z,23.27
2023-04-24T08:29:56.969Z,23.46
2023-04-24T08:35:01.121Z,22.24
2023-04-24T08:40:11.987Z,22.78
2023-04-24T08:45:16.996Z,22.35
2023-04-24T08:50:20.488Z,22.52
2023-04-24T08:55:26.282Z,22.96
2023-04-24T09:00:30.281Z,23.26
2023-04-24T09:05:34.962Z,22.06
2023-04-24T09:10:38.679Z,22.46
2023-04-24T09:15:42.834Z,22.47
2023-04-24T09:21:04.941Z,22.53
2023-04-24T09:26:11.255Z,23.08
2023-04-24T09:31:19.763Z,23.03
2023-04-24T09:36:39.150Z,23.12
2023-04-24T09:41:48.756Z,22.81
2023-04-24T09:46:58.607Z,23.06
2023-04-24T09:52:11.255Z,23.10
2023-04-24T09:57:16.491Z,23.32
2023-04-24T10:02:21.297Z,23.33
2023-04-24T10:07:27.558Z,23.32
2023-04-24T10:12:32.318Z,23.11
2023-04-24T10:17:37.418Z,23.61
2023-04-24T10:22:41.676Z,24.18
2023-04-24T10:27:47.602Z,23.45
2023-04-24T10:32:51.135Z,23.94
2023-04-24T10:38:08.032Z,23.71
2023-04-24T10:43:12.621Z,24.09
2023-04-24T10:48:17.642Z,24.34
2023-04-24T10:53:28.071Z,25.19
2023-04-24T10:58:58.774Z,24.90
2023-04-24T11:04:04.841Z,24.58
2023-04-24T11:09:12.494Z,24.35
2023-04-24T11:14:17.146Z,24.14
2023-04-24T11:19:22.728Z,24.33
2023-04-24T11:24:28.506Z,24.51
2023-04-24T11:29:57.786Z,25.14
2023-04-24T11:35:10.822Z,24.67
2023-04-24T11:40:18.989Z,24.35
2023-04-24T11:45:27.690Z,24.31
2023-04-24T11:50:32.198Z,24.08
2023-04-24T11:55:35.838Z,24.63
2023-04-24T12:00:39.800Z,24.16
2023-04-24T12:05:43.641Z,24.53
2023-04-24T12:10:53.097Z,23.86
2023-04-24T12:15:58.471Z,24.28
2023-04-24T12:21:23.103Z,24.53
2023-04-24T12:26:28.962Z,24.73
2023-04-24T12:31:33.663Z,24.48
2023-04-24T12:36:37.651Z,24.76
2023-04-24T12:41:52.571Z,25.58
2023-04-24T12:46:56.625Z,24.83
2023-04-24T12:52:00.328Z,23.84
2023-04-24T12:57:04.671Z,24.09
2023-04-24T13:02:10.376Z,24.73
2023-04-24T13:07:15.229Z,26.02
2023-04-24T13:12:19.330Z,25.36
2023-04-24T13:17:24.072Z,25.14
2023-04-24T13:22:28.680Z,26.04
2023-04-24T13:27:32.849Z,25.23
2023-04-24T13:32:37.858Z,25.88
2023-04-24T13:37:41.712Z,25.55
2023-04-24T13:42:45.697Z,25.32
2023-04-24T13:47:51.880Z,25.63
2023-04-24T13:52:55.533Z,24.46
2023-04-24T13:57:59.056Z,24.11
2023-04-24T14:03:02.684Z,23.68
2023-04-24T14:08:07.544Z,24.00
2023-04-24T14:13:10.717Z,23.69
2023-04-24T14:18:13.880Z,23.05
2023-04-24T14:23:18.717Z,22.40
2023-04-24T14:28:22.948Z,21.40
2023-04-24T14:33:26.595Z,20.68
2023-04-24T14:38:31.590Z,19.86
2023-04-24T14:43:36.491Z,19.72
2023-04-24T14:48:40.707Z,19.10
2023-04-24T14:53:44.461Z,17.94
2023-04-24T14:58:49.256Z,19.09
2023-04-24T15:03:53.585Z,19.64
2023-04-24T15:08:57.714Z,19.08
2023-04-24T15:14:01.404Z,19.17
2023-04-24T15:19:05.338Z,19.31
2023-04-24T15:24:08.664Z,18.45
2023-04-24T15:29:12.793Z,18.56
2023-04-24T15:34:16.365Z,18.19
2023-04-24T15:39:24.566Z,18.60
2023-04-24T15:44:27.910Z,18.59
2023-04-24T15:49:32.574Z,19.19
2023-04-24T15:54:36.210Z,18.75
2023-04-24T15:59:40.610Z,19.00
2023-04-24T16:04:43.746Z,19.18
2023-04-24T16:09:47.655Z,19.25
2023-04-24T16:14:51.069Z,18.92
2023-04-24T16:19:54.699Z,18.38
2023-04-24T16:24:58.909Z,18.50
2023-04-24T16:30:03.283Z,18.46
2023-04-24T16:35:06.820Z,17.68
2023-04-24T16:40:11.207Z,17.37
2023-04-24T16:45:14.508Z,17.15
2023-04-24T16:50:18.020Z,17.10
2023-04-24T16:55:21.525Z,16.82
2023-04-24T17:00:25.711Z,17.07
2023-04-24T17:05:28.741Z,16.61
2023-04-24T17:10:32.573Z,16.52
2023-04-24T17:15:37.294Z,16.16
2023-04-24T17:20:40.924Z,15.77
2023-04-24T17:25:44.329Z,15.74
2023-04-24T17:30:48.501Z,15.43
2023-04-24T17:35:51.872Z,15.47
2023-04-24T17:40:55.646Z,14.68
2023-04-24T17:46:00.308Z,14.88
2023-04-24T17:51:04.444Z,14.22
2023-04-24T17:56:08.706Z,13.98
2023-04-24T18:01:11.781Z,13.44
2023-04-24T18:06:25.776Z,13.57
2023-04-24T18:11:36.135Z,13.41
2023-04-24T18:16:39.692Z,13.03
2023-04-24T18:21:43.452Z,12.58
2023-04-24T18:26:46.778Z,12.70
2023-04-24T18:31:50.518Z,12.66
2023-04-24T18:36:54.820Z,12.22
2023-04-24T18:41:59.165Z,12.35
2023-04-24T18:47:02.606Z,11.98
2023-04-24T18:57:41.724Z,12.65
2023-04-24T19:02:45.726Z,12.17
2023-04-24T19:07:49.452Z,11.73
2023-04-24T19:12:56.683Z,12.06
2023-04-24T19:18:02.032Z,11.99
2023-04-24T19:23:06.726Z,11.49
2023-04-24T19:28:10.813Z,11.83
2023-04-24T19:33:16.035Z,11.28
2023-04-24T19:38:20.450Z,11.51
2023-04-24T19:43:24.194Z,12.00
2023-04-24T19:48:32.993Z,11.81
2023-04-24T19:53:36.410Z,11.88
2023-04-24T19:58:40.318Z,12.00
2023-04-24T20:03:45.368Z,11.78
2023-04-24T20:08:51.133Z,11.56
2023-04-24T20:13:54.537Z,11.57
2023-04-24T20:18:58.264Z,11.13
2023-04-24T20:24:01.952Z,11.36
2023-04-24T20:29:07.116Z,11.37
2023-04-24T20:41:30.875Z,12.07
2023-04-24T20:46:34.746Z,11.79
2023-04-24T20:51:38.833Z,11.61
2023-04-24T20:56:43.083Z,11.04
2023-04-24T21:01:46.927Z,11.61
2023-04-24T21:06:51.068Z,11.64
2023-04-24T21:11:57.439Z,11.16
2023-04-24T21:17:02.173Z,10.92
2023-04-24T21:22:05.970Z,10.55
2023-04-24T21:27:10.193Z,10.27
2023-04-24T21:32:14.146Z,10.72
2023-04-24T21:37:17.803Z,10.18
2023-04-24T21:42:21.641Z,10.31
2023-04-24T21:47:24.759Z,10.51
2023-04-24T21:52:28.800Z,10.36
2023-04-24T21:57:32.454Z,10.25
2023-04-24T22:02:36.489Z,9.86
2023-04-24T22:07:40.289Z,9.35
2023-04-24T22:12:45.208Z,9.49
2023-04-24T22:17:49.981Z,9.07
2023-04-24T22:22:53.593Z,8.76
2023-04-24T22:27:57.629Z,8.67
2023-04-24T22:33:00.722Z,8.79
2023-04-24T22:38:04.602Z,8.99
2023-04-24T22:43:08.861Z,8.86
2023-04-24T22:48:12.639Z,8.44
2023-04-24T22:53:16.546Z,8.56
2023-04-24T22:58:20.707Z,8.16
2023-04-24T23:03:24.714Z,8.18
2023-04-24T23:08:28.357Z,8.70
2023-04-24T23:13:32.450Z,7.98
2023-04-24T23:18:36.059Z,8.40
2023-04-24T23:23:39.685Z,7.87
2023-04-24T23:28:42.806Z,8.34
2023-04-24T23:33:46.761Z,8.01
2023-04-24T23:38:51.004Z,7.93
2023-04-24T23:43:55.301Z,8.04
2023-04-24T23:48:58.272Z,7.59
2023-04-24T23:54:02.243Z,7.57
2023-04-24T23:59:05.743Z,7.53
